Time;durP1;ratioP1;P1;durP2;ratioP2;P2;SDS_P1;SDS_P2;PMS_P1;PMS_P2;Temp;Humidity;BMP_temperature;BMP_pressure;BME280_temperature;BME280_humidity;BME280_pressure;Samples;Min_cycle;Max_cycle;Signal;HPM_P1;HPM_P2
2022/01/07 00:01:43;;;;;;;21.83;11.50;;;;;;;-144.19;100.00;77949.47;5072449;28;20522;-89
2022/01/07 00:04:10;;;;;;;25.50;11.13;;;;;;;-144.19;100.00;77945.53;5054963;28;20319;-88
2022/01/07 00:06:37;;;;;;;26.40;11.10;;;;;;;-144.19;100.00;77921.91;5072353;28;20048;-89
2022/01/07 00:09:03;;;;;;;22.58;9.70;;;;;;;-144.19;100.00;77925.84;5054582;28;20044;-89
2022/01/07 00:11:29;;;;;;;23.87;9.73;;;;;;;-144.19;100.00;77914.03;5054466;28;20048;-90
2022/01/07 00:13:56;;;;;;;22.45;9.82;;;;;;;-144.19;100.00;77914.03;5056258;28;20298;-91
2022/01/07 00:16:22;;;;;;;28.83;10.93;;;;;;;-144.19;100.00;77914.03;5082873;28;20517;-89
2022/01/07 00:18:49;;;;;;;20.83;10.27;;;;;;;-144.19;100.00;77908.13;5072306;28;20295;-89
2022/01/07 00:21:15;;;;;;;23.10;10.27;;;;;;;-144.19;100.00;77902.22;5054230;28;20525;-89
2022/01/07 00:23:42;;;;;;;26.90;9.93;;;;;;;-144.19;100.00;77896.31;5054206;28;20044;-90
2022/01/07 00:26:08;;;;;;;21.30;9.68;;;;;;;-144.19;100.00;77894.34;5054166;28;20055;-90
2022/01/07 00:28:35;;;;;;;28.55;9.90;;;;;;;-144.19;100.00;77898.28;5071989;28;20059;-88
2022/01/07 00:31:01;;;;;;;24.88;9.77;;;;;;;-144.19;100.00;77898.28;5053424;28;20060;-89
2022/01/07 00:33:28;;;;;;;26.58;11.43;;;;;;;-144.19;100.00;77882.53;5053647;28;20051;-89
2022/01/07 00:35:56;;;;;;;22.90;9.70;;;;;;;-144.19;100.00;77894.34;5054219;28;20640;-90
2022/01/07 00:38:23;;;;;;;23.40;9.38;;;;;;;-144.19;100.00;77882.53;5054204;28;20048;-89
2022/01/07 00:40:49;;;;;;;22.40;10.38;;;;;;;-144.19;100.00;77880.56;5054169;28;20134;-90
2022/01/07 00:43:16;;;;;;;23.13;10.57;;;;;;;-144.19;100.00;77884.50;5071892;28;20055;-89
2022/01/07 00:45:42;;;;;;;27.73;9.73;;;;;;;-144.19;100.00;77870.72;5054674;28;20070;-89
2022/01/07 00:48:09;;;;;;;22.63;10.13;;;;;;;-144.19;100.00;77878.59;5072215;28;20049;-89
2022/01/07 00:50:35;;;;;;;17.83;9.17;;;;;;;-144.19;100.00;77866.78;5054842;28;20279;-90
2022/01/07 00:53:02;;;;;;;22.73;9.48;;;;;;;-144.19;100.00;77862.84;5054144;28;20634;-89
2022/01/07 00:55:28;;;;;;;25.05;10.13;;;;;;;-144.19;100.00;77860.88;5049284;28;20127;-89
2022/01/07 00:57:56;;;;;;;24.13;9.50;;;;;;;-144.19;100.00;77858.91;5034326;28;20056;-89
2022/01/07 01:00:25;;;;;;;21.00;7.57;;;;;;;-144.19;100.00;77854.97;5034846;28;20297;-88
2022/01/07 01:02:53;;;;;;;27.65;9.45;;;;;;;-144.19;100.00;77851.03;5044711;28;20049;-89
2022/01/07 01:05:19;;;;;;;22.52;8.93;;;;;;;-144.19;100.00;77856.94;5054219;28;20048;-89
2022/01/07 01:07:46;;;;;;;20.52;8.23;;;;;;;-144.19;100.00;77851.03;5053707;28;20403;-89
2022/01/07 01:10:14;;;;;;;20.50;8.73;;;;;;;-144.19;100.00;77847.09;5071955;28;20052;-89
2022/01/07 01:12:43;;;;;;;20.95;8.75;;;;;;;-144.19;100.00;77839.19;5053840;28;20048;-89
2022/01/07 01:15:12;;;;;;;18.35;9.43;;;;;;;-144.19;100.00;77837.22;5054051;28;20404;-90
2022/01/07 01:17:39;;;;;;;22.63;9.13;;;;;;;-144.19;100.00;77843.13;5053791;28;20056;-89
2022/01/07 01:20:09;;;;;;;17.83;7.55;;;;;;;-144.19;100.00;77837.22;5053401;28;20062;-90
2022/01/07 01:22:36;;;;;;;14.88;7.38;;;;;;;-144.19;100.00;77819.50;5053504;28;20421;-90
2022/01/07 01:25:04;;;;;;;18.65;7.80;;;;;;;-144.19;100.00;77823.44;5071676;28;20053;-90
2022/01/07 01:27:31;;;;;;;21.85;7.07;;;;;;;-144.19;100.00;77811.63;5053282;28;20051;-89
2022/01/07 01:29:57;;;;;;;22.08;8.13;;;;;;;-144.19;100.00;77823.44;5071070;28;20071;-89
2022/01/07 01:32:24;;;;;;;16.75;8.15;;;;;;;-144.19;100.00;77823.44;5053099;28;20088;-89
2022/01/07 01:34:50;;;;;;;19.93;7.20;;;;;;;-144.19;100.00;77815.56;5071406;28;20060;-90
2022/01/07 01:37:17;;;;;;;11.63;6.57;;;;;;;-144.19;100.00;77815.56;5052940;28;20671;-89
2022/01/07 01:39:43;;;;;;;17.63;7.60;;;;;;;-144.19;100.00;77801.78;5052631;28;20071;-89
2022/01/07 01:42:09;;;;;;;16.63;7.40;;;;;;;-144.19;100.00;77807.69;5052482;28;20056;-89
2022/01/07 01:44:36;;;;;;;19.23;7.45;;;;;;;-144.19;100.00;77797.84;5070404;28;20052;-89
2022/01/07 01:47:03;;;;;;;19.47;6.93;;;;;;;-144.19;100.00;77799.81;5052984;28;20049;-90
2022/01/07 01:49:30;;;;;;;15.43;6.38;;;;;;;-144.19;100.00;77795.88;5052599;28;20289;-90
2022/01/07 01:51:56;;;;;;;16.93;7.13;;;;;;;-144.19;100.00;77788.00;5052150;28;20482;-90
2022/01/07 01:54:23;;;;;;;16.08;7.28;;;;;;;-144.19;100.00;77788.00;5070418;28;20665;-89
2022/01/07 01:56:49;;;;;;;13.20;5.60;;;;;;;-144.19;100.00;77788.00;5039696;28;20478;-89
2022/01/07 02:02:13;;;;;;;16.27;7.30;;;;;;;-144.19;100.00;77780.13;4951885;28;20298;-89
2022/01/07 02:04:40;;;;;;;16.50;6.47;;;;;;;-144.19;100.00;77772.25;4953557;28;20426;-87
2022/01/07 02:07:08;;;;;;;12.85;5.95;;;;;;;-144.19;100.00;77772.25;4955857;29;20059;-87
2022/01/07 02:09:36;;;;;;;12.82;7.00;;;;;;;-144.19;100.00;77766.34;4937927;28;20511;-87
2022/01/07 02:12:05;;;;;;;15.07;6.00;;;;;;;-144.19;100.00;77768.31;4936395;29;20142;-86
2022/01/07 02:14:32;;;;;;;17.00;7.07;;;;;;;-144.19;100.00;77764.38;4954029;29;20055;-87
2022/01/07 02:17:06;;;;;;;25.30;8.55;;;;;;;-144.19;100.00;77762.41;4953104;29;20055;-88
2022/01/07 02:19:34;;;;;;;15.27;7.70;;;;;;;-144.19;100.00;77764.38;4952914;28;20062;-89
2022/01/07 02:22:02;;;;;;;14.38;6.30;;;;;;;-144.19;100.00;77764.38;4954132;29;20102;-86
2022/01/07 02:24:28;;;;;;;17.90;6.18;;;;;;;-144.19;100.00;77776.19;4954491;29;20078;-89
2022/01/07 02:26:55;;;;;;;14.73;6.77;;;;;;;-144.19;100.00;77772.25;4953475;29;20043;-86
2022/01/07 02:29:21;;;;;;;17.65;8.38;;;;;;;-144.19;100.00;77799.81;4955058;28;20377;-87
2022/01/07 02:31:48;;;;;;;17.08;7.90;;;;;;;-144.19;100.00;77801.78;4954973;29;20069;-88
2022/01/07 02:34:15;;;;;;;15.18;6.68;;;;;;;-144.19;100.00;77791.94;4937617;29;20187;-89
2022/01/07 02:36:42;;;;;;;20.58;8.10;;;;;;;-144.19;100.00;77803.75;4955937;28;20418;-87
2022/01/07 02:39:08;;;;;;;16.13;6.82;;;;;;;-144.19;100.00;77819.50;4941456;29;20058;-86
2022/01/07 02:41:34;;;;;;;22.42;7.82;;;;;;;-144.19;100.00;77817.53;4957907;28;20062;-87
2022/01/07 02:44:01;;;;;;;23.75;7.45;;;;;;;-144.19;100.00;77809.66;4958079;29;20047;-89
2022/01/07 02:46:27;;;;;;;12.55;5.72;;;;;;;-144.19;100.00;77813.59;4943402;29;20114;-89
2022/01/07 02:48:54;;;;;;;20.83;7.88;;;;;;;-144.19;100.00;77807.69;4958166;28;20520;-86
2022/01/07 02:51:21;;;;;;;19.85;7.07;;;;;;;-144.19;100.00;77823.44;4958618;29;20063;-88
2022/01/07 02:53:47;;;;;;;19.83;6.97;;;;;;;-144.19;100.00;77819.50;4958576;29;20047;-89
2022/01/07 02:56:14;;;;;;;20.85;8.18;;;;;;;-144.19;100.00;77817.53;4956615;29;20058;-89
2022/01/07 02:58:40;;;;;;;10.98;5.80;;;;;;;-144.19;100.00;77837.22;4957217;29;20518;-88
2022/01/07 03:01:07;;;;;;;17.70;7.97;;;;;;;-144.19;100.00;77823.44;4940737;29;20059;-89
2022/01/07 03:03:34;;;;;;;12.13;7.60;;;;;;;-144.19;100.00;77819.50;4971868;28;20641;-90
2022/01/07 03:06:00;;;;;;;19.42;10.00;;;;;;;-144.19;100.00;77835.25;4972628;28;20082;-88
2022/01/07 03:08:27;;;;;;;18.70;8.13;;;;;;;-144.19;100.00;77827.38;4972953;28;20051;-87
2022/01/07 03:10:54;;;;;;;15.88;6.75;;;;;;;-144.19;100.00;77825.41;4959210;28;20051;-87
2022/01/07 03:13:20;;;;;;;21.42;8.07;;;;;;;-144.19;100.00;77825.41;4940233;29;20051;-86
2022/01/07 03:15:46;;;;;;;13.07;7.47;;;;;;;-144.19;100.00;77813.59;4958337;28;20426;-87
2022/01/07 03:18:13;;;;;;;17.08;7.97;;;;;;;-144.19;100.00;77803.75;4957113;28;20047;-87
2022/01/07 03:20:40;;;;;;;17.97;7.63;;;;;;;-144.19;100.00;77815.56;4957230;29;20051;-86
2022/01/07 03:23:09;;;;;;;18.65;8.25;;;;;;;-144.19;100.00;77807.69;4955273;29;20293;-86
2022/01/07 03:25:36;;;;;;;18.17;7.00;;;;;;;-144.19;100.00;77801.78;4955685;28;20059;-88
2022/01/07 03:28:03;;;;;;;21.23;8.93;;;;;;;-144.19;100.00;77788.00;4955748;29;20050;-86
2022/01/07 03:30:30;;;;;;;14.85;8.50;;;;;;;-144.19;100.00;77797.84;4957886;28;20077;-86
2022/01/07 03:32:57;;;;;;;20.17;9.25;;;;;;;-144.19;100.00;77807.69;4958834;28;20074;-87
2022/01/07 03:35:23;;;;;;;18.60;8.82;;;;;;;-144.19;100.00;77811.63;4958167;28;20498;-87
2022/01/07 03:37:50;;;;;;;13.80;7.07;;;;;;;-144.19;100.00;77809.66;4956639;28;20622;-86
2022/01/07 03:40:18;;;;;;;12.85;7.03;;;;;;;-144.19;100.00;77799.81;4958306;28;20070;-88
2022/01/07 03:42:46;;;;;;;16.70;7.95;;;;;;;-144.19;100.00;77799.81;4940991;29;20495;-88
2022/01/07 03:45:13;;;;;;;14.57;7.65;;;;;;;-144.19;100.00;77784.06;4957503;28;20091;-88
2022/01/07 03:47:40;;;;;;;18.77;7.70;;;;;;;-144.19;100.00;77780.13;4940312;29;20517;-86
2022/01/07 03:50:10;;;;;;;23.85;8.63;;;;;;;-144.19;100.00;77768.31;4955388;28;20061;-88
2022/01/07 03:52:36;;;;;;;25.45;9.52;;;;;;;-144.19;100.00;77770.28;4956654;28;20065;-87
2022/01/07 03:55:08;;;;;;;17.85;8.63;;;;;;;-144.19;100.00;77772.25;4938911;29;20062;-85
2022/01/07 03:57:35;;;;;;;16.05;7.32;;;;;;;-144.19;100.00;77772.25;4946125;28;20047;-88
2022/01/07 04:00:05;;;;;;;20.92;8.20;;;;;;;-144.19;100.00;77760.44;4956521;28;20051;-87
2022/01/07 04:02:31;;;;;;;25.85;10.00;;;;;;;-144.19;100.00;77758.47;4938974;29;20055;-87
2022/01/07 04:04:58;;;;;;;17.67;8.38;;;;;;;-144.19;100.00;77756.50;4956410;29;20074;-87
2022/01/07 04:07:24;;;;;;;19.48;9.20;;;;;;;-144.19;100.00;77744.69;4956617;29;20132;-86
2022/01/07 04:09:50;;;;;;;21.43;10.07;;;;;;;-144.19;100.00;77740.75;4957641;28;20401;-86
2022/01/07 04:12:17;;;;;;;18.05;8.27;;;;;;;-144.19;100.00;77748.63;4955305;28;20287;-86
2022/01/07 04:14:43;;;;;;;19.10;9.20;;;;;;;-144.19;100.00;77728.94;4955903;29;20051;-86
2022/01/07 04:17:10;;;;;;;19.73;8.33;;;;;;;-144.19;100.00;77730.91;4939324;29;20058;-88
2022/01/07 04:19:36;;;;;;;18.43;8.63;;;;;;;-144.19;100.00;77750.59;4956862;28;20815;-88
2022/01/07 04:22:03;;;;;;;21.10;10.02;;;;;;;-144.19;100.00;77748.63;4959029;28;20299;-85
2022/01/07 04:24:30;;;;;;;19.50;8.38;;;;;;;-144.19;100.00;77750.59;4957269;28;20051;-87
2022/01/07 04:26:56;;;;;;;19.50;8.10;;;;;;;-144.19;100.00;77756.50;4956171;29;20653;-87
2022/01/07 04:29:22;;;;;;;20.75;10.43;;;;;;;-144.19;100.00;77752.56;4955337;29;20054;-88
2022/01/07 04:31:49;;;;;;;28.05;10.40;;;;;;;-144.19;100.00;77760.44;4955179;28;20524;-89
2022/01/07 04:34:15;;;;;;;20.30;9.05;;;;;;;-144.19;100.00;77772.25;4954027;28;20122;-86
2022/01/07 04:36:42;;;;;;;18.02;8.32;;;;;;;-144.19;100.00;77752.56;4956797;29;20051;-86
2022/01/07 04:39:08;;;;;;;18.58;9.05;;;;;;;-144.19;100.00;77768.31;4956585;28;20043;-86
2022/01/07 04:41:34;;;;;;;17.63;8.43;;;;;;;-144.19;100.00;77764.38;4939331;29;20092;-87
2022/01/07 04:44:01;;;;;;;18.20;8.07;;;;;;;-144.19;100.00;77752.56;4955193;29;20293;-89
2022/01/07 04:46:27;;;;;;;18.52;7.75;;;;;;;-144.19;100.00;77766.34;4943810;29;20986;-87
2022/01/07 04:48:54;;;;;;;19.85;9.80;;;;;;;-144.19;100.00;77752.56;4951361;29;20048;-87
2022/01/07 04:51:20;;;;;;;21.03;8.77;;;;;;;-144.19;100.00;77762.41;4952181;28;20056;-85
2022/01/07 04:53:46;;;;;;;15.73;9.17;;;;;;;-144.19;100.00;77754.53;4937341;28;20311;-86
2022/01/07 04:56:13;;;;;;;20.48;9.45;;;;;;;-144.19;100.00;77760.44;4955235;28;20061;-88
2022/01/07 04:58:39;;;;;;;18.52;9.63;;;;;;;-144.19;100.00;77766.34;4938534;29;20059;-86
2022/01/07 05:01:05;;;;;;;17.80;10.13;;;;;;;-144.19;100.00;77750.59;4938599;29;20066;-86
2022/01/07 05:03:32;;;;;;;17.98;9.52;;;;;;;-144.19;100.00;77756.50;4954095;28;20357;-85
2022/01/07 05:06:17;;;;;;;19.35;9.88;;;;;;;-144.19;100.00;77760.44;4955737;28;20055;-87
2022/01/07 05:08:44;;;;;;;20.23;11.32;;;;;;;-144.19;100.00;77758.47;4954376;28;20051;-88
2022/01/07 05:11:10;;;;;;;21.13;10.63;;;;;;;-144.19;100.00;77748.63;4955602;28;20054;-87
2022/01/07 05:13:37;;;;;;;25.57;12.83;;;;;;;-144.19;100.00;77742.72;4953392;28;20287;-87
2022/01/07 05:16:03;;;;;;;18.63;10.20;;;;;;;-144.19;100.00;77746.66;4938871;29;20307;-85
2022/01/07 05:18:30;;;;;;;22.58;10.70;;;;;;;-144.19;100.00;77732.88;4939639;28;20311;-89
2022/01/07 05:20:56;;;;;;;18.83;10.90;;;;;;;-144.19;100.00;77748.63;4955359;29;20051;-88
2022/01/07 05:23:23;;;;;;;27.02;12.25;;;;;;;-144.19;100.00;77730.91;4953844;29;20078;-86
2022/01/07 05:25:50;;;;;;;23.92;11.25;;;;;;;-144.19;100.00;77740.75;4954030;28;20058;-87
2022/01/07 05:28:16;;;;;;;20.63;10.63;;;;;;;-144.19;100.00;77756.50;4954330;28;20059;-86
2022/01/07 05:30:42;;;;;;;20.30;11.40;;;;;;;-144.19;100.00;77725.00;4954921;29;20494;-87
2022/01/07 05:33:09;;;;;;;19.20;11.50;;;;;;;-144.19;100.00;77730.91;4954714;29;20303;-88
2022/01/07 05:35:36;;;;;;;19.23;10.97;;;;;;;-144.19;100.00;77736.81;4953528;28;20055;-86
2022/01/07 05:38:02;;;;;;;20.40;11.77;;;;;;;-144.19;100.00;77709.25;4953509;29;20299;-87
2022/01/07 05:40:29;;;;;;;16.63;10.48;;;;;;;-144.19;100.00;77723.03;4954183;28;20079;-87
2022/01/07 05:42:55;;;;;;;20.58;11.77;;;;;;;-144.19;100.00;77705.31;4937342;28;20057;-87
2022/01/07 05:45:21;;;;;;;20.52;10.13;;;;;;;-144.19;100.00;77717.13;4953323;29;20055;-86
2022/01/07 05:47:48;;;;;;;17.50;10.45;;;;;;;-144.19;100.00;77705.31;4953764;28;20051;-90
2022/01/07 05:50:14;;;;;;;21.10;11.67;;;;;;;-144.19;100.00;77697.44;4954176;28;20055;-86
2022/01/07 05:52:41;;;;;;;22.10;11.23;;;;;;;-144.19;100.00;77693.50;4937042;29;20283;-88
2022/01/07 05:55:07;;;;;;;23.65;14.40;;;;;;;-144.19;100.00;77679.72;4954995;29;20055;-87
2022/01/07 05:57:35;;;;;;;21.35;12.52;;;;;;;-144.19;100.00;77663.97;4954814;28;20525;-87
2022/01/07 06:00:07;;;;;;;19.77;11.63;;;;;;;-144.19;100.00;77673.81;4954943;28;20073;-86
2022/01/07 06:02:33;;;;;;;16.35;10.80;;;;;;;-144.19;100.00;77675.78;4953182;29;20051;-87
2022/01/07 06:04:59;;;;;;;16.30;10.68;;;;;;;-144.19;100.00;77677.75;4953166;28;20083;-86
2022/01/07 06:07:26;;;;;;;20.73;12.68;;;;;;;-144.19;100.00;77667.91;4954310;28;20055;-85
2022/01/07 06:09:52;;;;;;;17.13;12.00;;;;;;;-144.19;100.00;77673.81;4952877;29;20449;-88
2022/01/07 06:12:19;;;;;;;21.23;12.57;;;;;;;-144.19;100.00;77663.97;4953500;28;20294;-88
2022/01/07 06:14:45;;;;;;;22.75;15.05;;;;;;;-144.19;100.00;77658.06;4940007;29;20307;-88
2022/01/07 06:17:12;;;;;;;25.10;13.93;;;;;;;-144.19;100.00;77638.38;4956622;29;20051;-88
2022/01/07 06:19:39;;;;;;;22.13;13.10;;;;;;;-144.19;100.00;77654.13;4956708;28;20286;-87
2022/01/07 06:22:08;;;;;;;18.98;13.00;;;;;;;-144.19;100.00;77663.97;4957390;29;20534;-87
2022/01/07 06:24:34;;;;;;;22.07;13.27;;;;;;;-144.19;100.00;77654.13;4956771;28;20066;-89
2022/01/07 06:27:01;;;;;;;19.80;12.95;;;;;;;-144.19;100.00;77663.97;4957430;28;20062;-86
2022/01/07 06:29:27;;;;;;;21.48;13.40;;;;;;;-144.19;100.00;77656.09;4943161;28;20423;-87
2022/01/07 06:31:54;;;;;;;17.10;11.82;;;;;;;-144.19;100.00;77660.03;4953163;29;20517;-86
2022/01/07 06:34:20;;;;;;;20.90;13.13;;;;;;;-144.19;100.00;77646.25;4955415;28;20091;-86
2022/01/07 06:36:47;;;;;;;25.23;14.52;;;;;;;-144.19;100.00;77644.28;4953390;29;20061;-88
2022/01/07 06:39:15;;;;;;;25.00;16.52;;;;;;;-144.19;100.00;77628.53;4937893;29;20051;-87
2022/01/07 06:41:42;;;;;;;23.27;14.80;;;;;;;-144.19;100.00;77658.06;4939304;29;20048;-86
2022/01/07 06:44:08;;;;;;;24.97;14.50;;;;;;;-144.19;100.00;77654.13;4938525;29;20066;-87
2022/01/07 06:46:34;;;;;;;22.67;13.67;;;;;;;-144.19;100.00;77660.03;4958823;28;20302;-86
2022/01/07 06:49:01;;;;;;;24.10;13.15;;;;;;;-144.19;100.00;77652.16;4940875;29;20441;-89
2022/01/07 06:51:27;;;;;;;20.37;13.63;;;;;;;-144.19;100.00;77650.19;4940718;29;20059;-86
2022/01/07 06:53:53;;;;;;;20.00;13.40;;;;;;;-144.19;100.00;77642.31;4941096;28;20291;-87
2022/01/07 06:56:20;;;;;;;22.67;13.87;;;;;;;-144.19;100.00;77624.59;4930401;29;20292;-87
2022/01/07 06:58:46;;;;;;;24.07;12.93;;;;;;;-144.19;100.00;77634.44;4939014;29;20307;-88
2022/01/07 07:01:12;;;;;;;19.05;13.25;;;;;;;-144.19;100.00;77622.63;4943144;29;20047;-88
2022/01/07 07:03:40;;;;;;;21.38;12.48;;;;;;;-144.19;100.00;77630.50;4940823;29;20047;-85
2022/01/07 07:06:07;;;;;;;;;;;;;;;-144.19;100.00;77616.72;4957361;28;20051;-87
2022/01/07 07:08:33;;;;;;;24.33;14.90;;;;;;;-144.19;100.00;77599.00;4941381;28;19973;-86
2022/01/07 07:10:59;;;;;;;26.73;13.45;;;;;;;-144.19;100.00;77622.63;4958334;28;20061;-86
2022/01/07 07:13:26;;;;;;;24.27;14.93;;;;;;;-144.19;100.00;77612.78;4957382;29;20407;-87
2022/01/07 07:15:52;;;;;;;22.27;14.87;;;;;;;-144.19;100.00;77614.75;4941267;29;20057;-87
2022/01/07 07:18:19;;;;;;;21.42;13.65;;;;;;;-144.19;100.00;77618.69;4955975;28;20318;-87
2022/01/07 07:20:45;;;;;;;22.85;14.60;;;;;;;-144.19;100.00;77622.63;4958731;28;20059;-86
2022/01/07 07:23:11;;;;;;;19.83;14.00;;;;;;;-144.19;100.00;77610.81;4955484;28;20081;-85
2022/01/07 07:25:38;;;;;;;21.53;12.83;;;;;;;-144.19;100.00;77614.75;4956533;28;20055;-86
2022/01/07 07:28:05;;;;;;;29.10;15.93;;;;;;;-144.19;100.00;77604.91;4956452;28;20295;-87
2022/01/07 07:30:38;;;;;;;22.15;13.68;;;;;;;-144.19;100.00;77616.72;4956400;29;20058;-86
2022/01/07 07:38:38;;;;;;;17.40;12.75;;;;;;;-144.19;100.00;77606.88;4957924;28;20043;-86
2022/01/07 07:41:06;;;;;;;22.20;15.25;;;;;;;-144.19;100.00;77593.09;4956606;28;20055;-86
2022/01/07 07:43:33;;;;;;;25.70;14.57;;;;;;;-144.19;100.00;77593.09;4955986;29;20061;-86
2022/01/07 07:46:00;;;;;;;20.13;14.27;;;;;;;-144.19;100.00;77595.06;4957691;28;20051;-87
2022/01/07 07:48:27;;;;;;;25.65;16.95;;;;;;;-144.19;100.00;77583.25;4939680;29;20109;-87
2022/01/07 07:50:53;;;;;;;25.25;17.67;;;;;;;-144.19;100.00;77577.34;4939625;29;20062;-86
2022/01/07 07:53:19;;;;;;;25.27;15.67;;;;;;;-144.19;100.00;77599.00;4957004;29;20047;-88
2022/01/07 07:55:51;;;;;;;26.13;16.00;;;;;;;-144.19;100.00;77591.13;4957513;29;20776;-87
2022/01/07 07:58:17;;;;;;;28.52;17.67;;;;;;;-144.19;100.00;77579.31;4960536;28;20078;-87
2022/01/07 08:00:44;;;;;;;20.07;15.47;;;;;;;-144.19;100.00;77579.31;4956180;29;20047;-86
2022/01/07 08:03:10;;;;;;;23.55;15.32;;;;;;;-144.19;100.00;77577.34;4940959;29;20127;-87
2022/01/07 08:05:36;;;;;;;20.67;15.50;;;;;;;-144.19;100.00;77571.44;4955717;28;20521;-85
2022/01/07 08:08:03;;;;;;;22.50;13.90;;;;;;;-144.19;100.00;77595.06;4957201;28;20287;-87
2022/01/07 08:10:30;;;;;;;20.08;13.38;;;;;;;-144.19;100.00;77591.13;4956211;28;20059;-87
2022/01/07 08:18:20;;;;;;;22.25;15.65;;;;;;;-144.19;100.00;77577.34;4957048;28;20093;-88
2022/01/07 08:20:46;;;;;;;22.52;14.27;;;;;;;-144.19;100.00;77589.16;4955443;28;20061;-86
2022/01/07 08:23:13;;;;;;;21.10;15.27;;;;;;;-144.19;100.00;77575.38;4956180;28;20055;-87
2022/01/07 08:25:39;;;;;;;23.73;16.17;;;;;;;-144.19;100.00;77569.47;4956882;28;20051;-88
2022/01/07 08:28:06;;;;;;;25.02;17.38;;;;;;;-144.19;100.00;77559.63;4956836;28;20062;-87
2022/01/07 08:30:37;;;;;;;;;;;;;;;-144.19;100.00;77551.72;4955828;28;20055;-87
2022/01/07 08:35:50;;;;;;;26.38;17.30;;;;;;;-144.19;100.00;77579.31;4957033;28;20055;-86
2022/01/07 08:38:16;;;;;;;24.88;18.05;;;;;;;-144.19;100.00;77581.28;4956594;28;20051;-87
2022/01/07 08:40:42;;;;;;;27.23;20.23;;;;;;;-144.19;100.00;77563.56;4956474;29;20434;-87
2022/01/07 08:43:09;;;;;;;31.80;21.43;;;;;;;-144.19;100.00;77559.63;4956359;28;20059;-87
2022/01/07 08:45:35;;;;;;;32.77;21.67;;;;;;;-144.19;100.00;77545.84;4955214;28;20309;-87
2022/01/07 08:48:02;;;;;;;35.28;22.60;;;;;;;-144.19;100.00;77559.63;4956135;28;20059;-87
2022/01/07 08:50:28;;;;;;;33.97;21.73;;;;;;;-144.19;100.00;77555.69;4957642;28;20054;-86
2022/01/07 08:53:00;;;;;;;35.22;23.52;;;;;;;-144.19;100.00;77547.78;4955098;28;20054;-85
2022/01/07 08:55:27;;;;;;;32.50;21.52;;;;;;;-144.19;100.00;77559.63;4955001;29;20130;-84
2022/01/07 08:57:53;;;;;;;35.72;22.70;;;;;;;-144.19;100.00;77553.72;4955613;28;20429;-88
2022/01/07 09:00:20;;;;;;;33.13;22.93;;;;;;;-144.19;100.00;77539.91;4955479;28;20043;-86
2022/01/07 09:02:46;;;;;;;41.85;25.38;;;;;;;-144.19;100.00;77559.63;4938523;28;20055;-88
2022/01/07 09:05:13;;;;;;;35.90;24.00;;;;;;;-144.19;100.00;77551.72;4955606;28;20581;-86
2022/01/07 09:07:39;;;;;;;43.73;22.83;;;;;;;-144.19;100.00;77565.53;4938840;29;20051;-88
2022/01/07 09:10:06;;;;;;;44.35;23.20;;;;;;;-144.19;100.00;77575.38;4953998;28;20287;-87
2022/01/07 09:12:32;;;;;;;40.33;26.77;;;;;;;-144.19;100.00;77573.41;4954128;29;20059;-88
2022/01/07 09:14:59;;;;;;;35.60;22.17;;;;;;;-144.19;100.00;77567.50;4955542;29;20541;-85
2022/01/07 09:17:26;;;;;;;37.87;23.53;;;;;;;-144.19;100.00;77555.69;4953845;28;20066;-87
2022/01/07 09:19:53;;;;;;;43.70;26.92;;;;;;;-144.19;100.00;77539.91;4938131;29;20817;-86
2022/01/07 09:22:19;;;;;;;44.73;25.80;;;;;;;-144.19;100.00;77530.06;4953708;28;20191;-87
2022/01/07 09:24:45;;;;;;;38.93;25.30;;;;;;;-144.19;100.00;77547.78;4954580;29;20051;-86
2022/01/07 09:27:12;;;;;;;36.13;22.60;;;;;;;-144.19;100.00;77559.63;4938987;29;20303;-87
2022/01/07 09:29:38;;;;;;;43.83;26.60;;;;;;;-144.19;100.00;77545.84;4955634;28;20057;-89
2022/01/07 09:32:06;;;;;;;45.67;25.70;;;;;;;-144.19;100.00;77549.75;4939538;28;20134;-86
2022/01/07 09:34:33;;;;;;;41.25;25.13;;;;;;;-144.19;100.00;77539.91;4954767;29;20055;-89
2022/01/07 09:37:03;;;;;;;47.25;27.80;;;;;;;-144.19;100.00;77539.91;4955221;28;20058;-89
2022/01/07 09:39:30;;;;;;;46.45;27.05;;;;;;;-144.19;100.00;77528.09;4938872;28;20115;-89
2022/01/07 09:41:56;;;;;;;;;;;;;;;-144.19;100.00;77547.78;4943877;28;20077;-88
2022/01/07 09:44:23;;;;;;;45.38;27.27;;;;;;;-144.19;100.00;77524.16;4948346;29;19923;-89
2022/01/07 09:46:49;;;;;;;51.73;30.23;;;;;;;-144.19;100.00;77508.41;4939127;28;20061;-87
2022/01/07 09:49:15;;;;;;;44.40;26.60;;;;;;;-144.19;100.00;77524.16;4954550;28;20375;-86
2022/01/07 09:51:42;;;;;;;49.57;28.47;;;;;;;-144.19;100.00;77516.28;4955348;29;20059;-88
2022/01/07 09:54:09;;;;;;;44.65;28.38;;;;;;;-144.19;100.00;77514.31;4954574;29;20293;-88
2022/01/07 09:56:37;;;;;;;;;;;;;;;-144.19;100.00;77492.66;4954839;29;20051;-88
2022/01/07 09:59:05;;;;;;;52.87;27.80;;;;;;;-144.19;100.00;77492.66;4938513;28;19922;-87
2022/01/07 10:02:01;;;;;;;44.10;28.42;;;;;;;-144.19;100.00;77484.78;4955015;28;20051;-86
2022/01/07 10:04:29;;;;;;;46.92;28.38;;;;;;;-144.19;100.00;77492.66;4954154;29;20051;-87
2022/01/07 10:07:21;;;;;;;51.22;29.90;;;;;;;-144.19;100.00;77461.16;4955270;28;20055;-85
2022/01/07 10:10:09;;;;;;;49.60;28.83;;;;;;;-144.19;100.00;77480.84;4954243;28;20051;-88
2022/01/07 10:12:59;;;;;;;48.70;27.83;;;;;;;-144.19;100.00;77496.59;4938293;29;20055;-88
2022/01/07 10:15:28;;;;;;;43.45;26.42;;;;;;;-144.19;100.00;77482.81;4936141;29;20052;-87
2022/01/07 10:18:01;;;;;;;45.55;27.58;;;;;;;-144.19;100.00;77480.84;4919574;29;20051;-88
2022/01/07 10:20:32;;;;;;;49.05;28.25;;;;;;;-144.19;100.00;77469.03;4935982;29;20054;-85
2022/01/07 10:23:02;;;;;;;44.28;26.98;;;;;;;-144.19;100.00;77461.16;4934389;29;20055;-86
2022/01/07 10:25:34;;;;;;;44.03;27.65;;;;;;;-144.19;100.00;77437.53;4935002;29;20138;-88
2022/01/07 10:28:04;;;;;;;45.25;29.52;;;;;;;-144.19;100.00;77441.47;4936375;29;20403;-86
2022/01/07 10:30:38;;;;;;;43.00;25.27;;;;;;;-144.19;100.00;77445.41;4919745;29;20048;-85
2022/01/07 10:33:15;;;;;;;42.70;26.63;;;;;;;-144.19;100.00;77443.44;4935262;29;20058;-86
2022/01/07 10:35:41;;;;;;;40.67;27.30;;;;;;;-144.19;100.00;77413.91;4935324;29;20657;-88
2022/01/07 10:38:08;;;;;;;47.45;29.13;;;;;;;-144.19;100.00;77421.78;4918357;29;20513;-86
2022/01/07 10:40:39;;;;;;;37.90;24.73;;;;;;;-144.19;100.00;77421.78;4934282;29;20052;-86
2022/01/07 10:43:18;;;;;;;48.97;28.65;;;;;;;-144.19;100.00;77415.88;4933586;29;20296;-86
2022/01/07 10:45:51;;;;;;;43.78;28.15;;;;;;;-144.19;100.00;77402.09;4936318;29;20052;-86
2022/01/07 10:48:20;;;;;;;41.60;25.50;;;;;;;-144.19;100.00;77413.91;4933526;29;20087;-89
2022/01/07 10:50:50;;;;;;;39.47;25.63;;;;;;;-144.19;100.00;77413.91;4934290;29;20058;-87
2022/01/07 10:53:18;;;;;;;39.05;25.65;;;;;;;-144.19;100.00;77390.28;4936152;29;20062;-86
2022/01/07 10:55:57;;;;;;;49.53;26.77;;;;;;;-144.19;100.00;77390.28;4951368;28;20057;-84
2022/01/07 10:58:23;;;;;;;46.15;27.50;;;;;;;-144.19;100.00;77370.59;4957553;29;20047;-88
2022/01/07 11:00:50;;;;;;;43.22;27.35;;;;;;;-144.19;100.00;77354.84;4957601;28;20502;-88
2022/01/07 11:03:16;;;;;;;42.38;27.67;;;;;;;-144.19;100.00;77368.63;4940624;29;20090;-88
2022/01/07 11:05:42;;;;;;;44.23;26.23;;;;;;;-144.19;100.00;77370.59;4957696;28;20052;-86
2022/01/07 11:08:09;;;;;;;51.85;26.55;;;;;;;-144.19;100.00;77366.66;4958193;29;20073;-87
2022/01/07 11:10:38;;;;;;;43.13;26.70;;;;;;;-144.19;100.00;77356.81;4941795;29;20047;-87
2022/01/07 11:13:05;;;;;;;38.47;26.48;;;;;;;-144.19;100.00;77378.47;4957234;29;20047;-89
2022/01/07 11:15:31;;;;;;;50.22;27.55;;;;;;;-144.19;100.00;77360.75;4941687;29;20057;-87